Time;durP1;ratioP1;P1;durP2;ratioP2;P2;SDS_P1;SDS_P2;PMS_P1;PMS_P2;Temp;Humidity;BMP_temperature;BMP_pressure;BME280_temperature;BME280_humidity;BME280_pressure;Samples;Min_cycle;Max_cycle;Signal;HPM_P1;HPM_P2
2023/01/13 00:01:22;;;;;;;20.50;3.33;;;9.80;99.90;;;;;;5088909;28;20412;-78
2023/01/13 00:03:48;;;;;;;21.33;3.42;;;9.70;99.90;;;;;;5072203;28;20406;-77
2023/01/13 00:06:20;;;;;;;20.95;3.42;;;9.70;99.90;;;;;;5099149;28;20402;-78
2023/01/13 00:08:50;;;;;;;20.38;3.40;;;9.70;99.90;;;;;;5087842;28;20422;-78
2023/01/13 00:11:16;;;;;;;19.00;3.13;;;9.60;99.90;;;;;;5089426;28;20918;-78
2023/01/13 00:13:42;;;;;;;20.23;3.80;;;9.60;99.90;;;;;;5087897;28;20485;-78
2023/01/13 00:16:11;;;;;;;18.88;3.40;;;9.50;99.90;;;;;;5088247;28;20398;-78
2023/01/13 00:18:37;;;;;;;20.15;3.80;;;9.40;99.90;;;;;;5087087;28;20912;-77
2023/01/13 00:21:12;;;;;;;19.83;4.10;;;9.30;99.90;;;;;;5087924;28;20413;-77
2023/01/13 00:23:38;;;;;;;21.63;3.80;;;9.30;99.90;;;;;;5089031;28;20413;-77
2023/01/13 00:26:07;;;;;;;23.70;3.85;;;9.20;99.90;;;;;;5089410;28;20923;-78
2023/01/13 00:28:33;;;;;;;20.42;3.08;;;9.20;99.90;;;;;;5086720;28;20528;-77
2023/01/13 00:31:11;;;;;;;21.08;4.15;;;9.20;99.90;;;;;;5087042;28;20497;-78
2023/01/13 00:33:37;;;;;;;21.80;3.28;;;9.10;99.90;;;;;;5068975;28;20414;-77
2023/01/13 00:36:04;;;;;;;21.35;3.60;;;9.00;99.90;;;;;;5087322;28;20416;-78
2023/01/13 00:38:32;;;;;;;28.33;4.00;;;8.90;99.90;;;;;;5086763;28;20406;-78
2023/01/13 00:41:03;;;;;;;23.88;4.07;;;8.90;99.90;;;;;;5070297;28;20410;-77
2023/01/13 00:43:31;;;;;;;21.37;3.50;;;8.80;99.90;;;;;;5089482;28;20421;-77
2023/01/13 00:45:57;;;;;;;26.03;4.07;;;8.80;99.90;;;;;;5086154;28;20972;-77
2023/01/13 00:48:23;;;;;;;23.80;3.73;;;8.70;99.90;;;;;;5086604;28;20441;-77
2023/01/13 00:51:03;;;;;;;23.45;4.57;;;8.70;99.90;;;;;;5087351;28;20410;-77
2023/01/13 00:53:33;;;;;;;22.45;4.20;;;8.60;99.90;;;;;;5088315;28;20406;-77
2023/01/13 00:56:05;;;;;;;26.42;4.57;;;8.60;99.90;;;;;;5091073;28;20417;-77
2023/01/13 00:58:32;;;;;;;31.23;5.45;;;8.60;99.90;;;;;;5083317;28;20394;-78
2023/01/13 01:01:03;;;;;;;28.00;4.78;;;8.50;99.90;;;;;;5090530;28;20946;-77
2023/01/13 01:03:29;;;;;;;25.80;4.57;;;8.50;99.90;;;;;;5078087;28;20926;-78
2023/01/13 01:05:55;;;;;;;22.60;4.32;;;8.40;99.90;;;;;;5110046;28;20428;-77
2023/01/13 01:08:21;;;;;;;26.63;5.43;;;8.40;99.90;;;;;;5097154;28;20430;-78
2023/01/13 01:10:47;;;;;;;28.50;5.18;;;8.40;99.90;;;;;;5092593;28;20412;-78
2023/01/13 01:13:16;;;;;;;29.25;5.18;;;8.40;99.90;;;;;;5090043;28;20415;-77
2023/01/13 01:15:42;;;;;;;29.77;5.90;;;8.30;99.90;;;;;;5090260;28;20463;-77
2023/01/13 01:18:08;;;;;;;29.13;4.80;;;8.30;99.90;;;;;;5089895;28;20441;-77
2023/01/13 01:20:35;;;;;;;26.77;4.72;;;8.20;99.90;;;;;;5072612;28;20433;-78
2023/01/13 01:23:01;;;;;;;28.27;5.28;;;8.20;99.90;;;;;;5089304;28;20410;-77
2023/01/13 01:25:27;;;;;;;27.00;5.22;;;8.20;99.90;;;;;;5087252;28;20433;-78
2023/01/13 01:27:53;;;;;;;32.13;5.60;;;8.20;99.90;;;;;;5088292;28;20744;-77
2023/01/13 01:30:18;;;;;;;25.58;5.80;;;8.20;99.90;;;;;;5089841;28;20404;-77
2023/01/13 01:32:44;;;;;;;28.35;5.05;;;8.20;99.90;;;;;;5073226;28;20415;-78
2023/01/13 01:35:10;;;;;;;28.03;5.10;;;8.20;99.90;;;;;;5080213;28;20418;-78
2023/01/13 01:37:35;;;;;;;32.53;5.15;;;8.20;99.90;;;;;;5088792;28;20459;-78
2023/01/13 01:40:01;;;;;;;29.13;5.05;;;8.20;99.90;;;;;;5096274;28;20406;-77
2023/01/13 01:45:19;;;;;;;25.58;4.70;;;8.10;99.90;;;;;;5089731;28;20499;-78
2023/01/13 01:47:50;;;;;;;32.83;5.77;;;8.10;99.90;;;;;;5099348;28;21060;-77
2023/01/13 01:50:17;;;;;;;27.33;4.60;;;8.10;99.90;;;;;;5105040;28;20417;-78
2023/01/13 01:52:49;;;;;;;28.42;4.85;;;8.00;99.90;;;;;;5075058;28;20410;-78
2023/01/13 01:55:29;;;;;;;31.10;5.40;;;8.00;99.90;;;;;;5088514;28;20445;-77
2023/01/13 01:58:04;;;;;;;30.45;4.97;;;8.00;99.90;;;;;;5108580;28;20408;-77
2023/01/13 02:00:30;;;;;;;27.10;4.95;;;8.00;99.90;;;;;;5090593;28;20416;-77
2023/01/13 02:02:58;;;;;;;27.02;4.93;;;8.00;99.90;;;;;;5088227;28;20775;-77
2023/01/13 02:05:24;;;;;;;35.10;5.82;;;8.00;99.90;;;;;;5087856;28;20752;-77
2023/01/13 02:07:52;;;;;;;33.33;6.15;;;7.90;99.90;;;;;;5088124;28;21139;-78
2023/01/13 02:10:21;;;;;;;27.15;4.57;;;7.90;99.90;;;;;;5072014;28;20405;-77
2023/01/13 02:12:48;;;;;;;29.23;5.07;;;8.00;99.90;;;;;;5090128;28;20512;-77
2023/01/13 02:15:21;;;;;;;28.52;5.30;;;8.00;99.90;;;;;;5087896;28;20403;-77
2023/01/13 02:18:01;;;;;;;32.20;5.30;;;8.00;99.90;;;;;;5089827;28;20957;-77
2023/01/13 02:20:54;;;;;;;27.65;5.10;;;7.90;99.90;;;;;;5088430;28;20410;-78
2023/01/13 02:26:35;;;;;;;34.27;6.27;;;7.90;99.90;;;;;;5086412;28;20434;-77
2023/01/13 02:32:18;;;;;;;29.65;5.10;;;8.00;99.90;;;;;;5090270;28;20413;-77
2023/01/13 02:35:09;;;;;;;29.43;5.60;;;8.00;99.90;;;;;;5072294;28;20421;-77
2023/01/13 02:37:41;;;;;;;28.77;4.90;;;8.10;99.90;;;;;;5089462;28;20505;-77
2023/01/13 02:40:37;;;;;;;24.10;4.22;;;8.10;99.90;;;;;;5091349;28;20745;-77
2023/01/13 02:46:30;;;;;;;27.58;4.40;;;8.10;99.90;;;;;;5081248;28;20449;-77
2023/01/13 02:49:00;;;;;;;28.95;5.72;;;8.10;99.90;;;;;;5090461;28;20398;-78
2023/01/13 02:51:28;;;;;;;30.38;5.03;;;8.10;99.90;;;;;;5088757;28;20398;-78
2023/01/13 02:54:00;;;;;;;35.00;5.03;;;8.00;99.90;;;;;;5089144;28;20776;-77
2023/01/13 02:56:28;;;;;;;29.73;5.85;;;8.00;99.90;;;;;;5089413;28;20442;-78
2023/01/13 02:58:56;;;;;;;29.98;6.55;;;8.00;99.90;;;;;;5089152;28;20423;-78
2023/01/13 03:01:22;;;;;;;26.42;4.50;;;8.00;99.90;;;;;;5089342;28;20412;-78
2023/01/13 03:03:48;;;;;;;29.13;5.60;;;7.90;99.90;;;;;;5089381;28;20406;-78
2023/01/13 03:06:52;;;;;;;28.83;4.65;;;7.90;99.90;;;;;;5091874;28;20411;-78
2023/01/13 03:09:31;;;;;;;29.33;5.90;;;7.90;99.90;;;;;;5085950;28;20414;-77
2023/01/13 03:12:06;;;;;;;32.33;5.77;;;7.90;99.90;;;;;;5106632;28;20965;-78
2023/01/13 03:14:38;;;;;;;32.22;5.20;;;7.90;99.90;;;;;;5088090;28;20412;-77
2023/01/13 03:17:42;;;;;;;30.73;5.47;;;7.90;99.90;;;;;;5104932;28;20434;-77
2023/01/13 03:20:47;;;;;;;26.40;4.73;;;8.00;99.90;;;;;;5063515;28;20777;-77
2023/01/13 03:23:20;;;;;;;28.08;4.95;;;8.00;99.90;;;;;;5054440;28;20449;-78
2023/01/13 03:26:14;;;;;;;25.30;5.03;;;8.00;99.90;;;;;;5087877;28;20498;-77
2023/01/13 03:28:44;;;;;;;25.77;4.37;;;8.00;99.90;;;;;;5079494;27;20432;-77
2023/01/13 03:31:17;;;;;;;27.40;5.35;;;8.00;99.90;;;;;;5070888;28;20481;-77
2023/01/13 03:33:53;;;;;;;26.73;4.88;;;8.00;99.90;;;;;;5089960;28;20756;-77
2023/01/13 03:36:22;;;;;;;26.10;4.88;;;8.10;99.90;;;;;;5078338;28;20422;-77
2023/01/13 03:38:52;;;;;;;23.85;4.45;;;8.00;99.90;;;;;;5070512;28;20397;-78
2023/01/13 03:41:39;;;;;;;25.70;4.10;;;8.00;99.90;;;;;;5103621;27;20414;-77
2023/01/13 03:44:22;;;;;;;27.80;3.83;;;8.00;99.90;;;;;;5086805;28;20414;-77
2023/01/13 03:47:05;;;;;;;23.75;4.45;;;8.00;99.90;;;;;;5087815;28;20773;-77
2023/01/13 03:49:46;;;;;;;26.55;4.90;;;7.90;99.90;;;;;;5089073;28;20414;-77
2023/01/13 03:52:20;;;;;;;27.90;5.10;;;7.90;99.90;;;;;;5090946;28;20404;-77
2023/01/13 03:55:02;;;;;;;20.65;4.50;;;7.90;99.90;;;;;;5091932;28;20400;-77
2023/01/13 03:57:33;;;;;;;25.83;4.73;;;7.90;99.90;;;;;;5087472;28;20470;-77
2023/01/13 04:00:00;;;;;;;25.45;4.90;;;7.90;99.90;;;;;;5086368;28;20908;-77
2023/01/13 04:02:39;;;;;;;27.40;4.75;;;7.90;99.90;;;;;;5072851;28;20407;-77
2023/01/13 04:05:08;;;;;;;26.67;4.20;;;7.90;99.90;;;;;;5089073;28;20438;-77
2023/01/13 04:07:59;;;;;;;25.48;4.13;;;7.90;99.90;;;;;;5072729;28;20540;-78
2023/01/13 04:10:43;;;;;;;25.42;4.80;;;7.90;99.90;;;;;;5089186;28;20464;-77
2023/01/13 04:13:17;;;;;;;27.60;4.60;;;7.90;99.90;;;;;;5089079;28;20398;-77
2023/01/13 04:15:44;;;;;;;23.45;3.83;;;7.90;99.90;;;;;;5089969;28;20867;-77
2023/01/13 04:18:14;;;;;;;24.23;4.73;;;7.90;99.90;;;;;;5087758;28;20402;-77
2023/01/13 04:20:42;;;;;;;26.42;4.50;;;7.90;99.90;;;;;;5089282;28;20507;-77
2023/01/13 04:23:08;;;;;;;24.85;4.47;;;7.90;99.90;;;;;;5089738;28;20406;-77
2023/01/13 04:25:34;;;;;;;25.60;4.13;;;7.90;99.90;;;;;;5090427;28;20747;-78
2023/01/13 04:28:00;;;;;;;22.17;3.97;;;7.90;99.90;;;;;;5091702;28;20475;-77
2023/01/13 04:30:25;;;;;;;23.33;4.68;;;7.80;99.90;;;;;;5094393;28;20815;-77
2023/01/13 04:32:51;;;;;;;26.73;4.73;;;7.80;99.90;;;;;;5091554;28;20430;-77
2023/01/13 04:35:16;;;;;;;21.23;4.00;;;7.80;99.90;;;;;;5095014;28;20401;-78
2023/01/13 04:37:42;;;;;;;32.87;5.57;;;7.80;99.90;;;;;;5093407;28;20402;-77
2023/01/13 04:40:08;;;;;;;25.97;4.33;;;7.80;99.90;;;;;;5093284;28;21019;-78
2023/01/13 04:42:34;;;;;;;24.55;4.45;;;7.80;99.90;;;;;;5093233;28;20401;-77
2023/01/13 04:44:59;;;;;;;22.45;4.18;;;7.80;99.90;;;;;;5093132;28;20406;-77
2023/01/13 04:47:25;;;;;;;29.97;4.53;;;7.80;99.90;;;;;;5090946;28;20422;-77
2023/01/13 04:49:50;;;;;;;29.00;4.85;;;7.70;99.90;;;;;;5090540;28;20402;-78
2023/01/13 04:52:16;;;;;;;30.07;4.77;;;7.80;99.90;;;;;;5090897;28;20434;-77
2023/01/13 04:54:42;;;;;;;25.50;4.57;;;7.80;99.90;;;;;;5073703;28;20402;-77
2023/01/13 04:57:07;;;;;;;27.83;4.90;;;7.80;99.90;;;;;;5091154;28;20406;-78
2023/01/13 04:59:33;;;;;;;26.23;4.35;;;7.80;99.90;;;;;;5094124;28;20920;-78
2023/01/13 05:01:58;;;;;;;21.93;4.40;;;7.90;99.90;;;;;;5090790;28;20405;-78
2023/01/13 05:04:24;;;;;;;28.30;4.25;;;7.90;99.90;;;;;;5090382;28;20592;-77
2023/01/13 05:06:50;;;;;;;25.65;4.95;;;8.00;99.90;;;;;;5090245;28;20398;-78
2023/01/13 05:09:15;;;;;;;25.03;4.37;;;8.00;99.90;;;;;;5091018;28;20410;-78
2023/01/13 05:17:15;;;;;;;25.63;4.70;;;8.10;99.90;;;;;;5090564;28;20418;-78
2023/01/13 05:19:41;;;;;;;23.10;4.50;;;8.10;99.90;;;;;;5090387;28;20432;-77
2023/01/13 05:27:35;;;;;;;25.10;4.72;;;8.20;99.90;;;;;;5086339;28;20467;-78
2023/01/13 05:30:01;;;;;;;22.55;4.10;;;8.20;99.90;;;;;;5079558;28;20969;-78
2023/01/13 05:32:29;;;;;;;21.70;3.72;;;8.30;99.90;;;;;;5090144;28;20448;-77
2023/01/13 05:34:55;;;;;;;23.42;3.78;;;8.30;99.90;;;;;;5090450;28;20494;-78
2023/01/13 05:37:22;;;;;;;22.38;4.03;;;8.30;99.90;;;;;;5091608;28;20485;-78
2023/01/13 05:43:19;;;;;;;24.77;4.30;;;8.40;99.90;;;;;;5078795;28;20923;-77
2023/01/13 05:45:19;;;;;;;24.80;4.28;;;8.40;99.90;;;;;;5072618;28;20410;-78
2023/01/13 05:47:45;;;;;;;24.43;3.97;;;8.50;99.90;;;;;;5089882;28;20452;-77
2023/01/13 05:50:11;;;;;;;23.80;3.80;;;8.40;99.90;;;;;;5089630;28;20485;-77
2023/01/13 05:52:36;;;;;;;27.20;5.10;;;8.40;99.90;;;;;;5089204;28;20506;-78
2023/01/13 05:55:03;;;;;;;26.83;4.40;;;8.40;99.90;;;;;;5089452;28;20421;-77
2023/01/13 05:57:28;;;;;;;21.90;4.47;;;8.50;99.90;;;;;;5089616;28;20414;-78
2023/01/13 05:59:54;;;;;;;23.10;4.37;;;8.40;99.90;;;;;;5089798;28;20414;-77
2023/01/13 06:02:19;;;;;;;22.10;3.42;;;8.40;99.90;;;;;;5082623;28;20419;-77
2023/01/13 06:04:45;;;;;;;21.43;4.87;;;8.50;99.90;;;;;;5069981;28;20407;-78
2023/01/13 06:07:11;;;;;;;21.55;3.75;;;8.50;99.90;;;;;;5072725;28;20507;-78
2023/01/13 06:09:37;;;;;;;23.67;3.90;;;8.40;99.90;;;;;;5101643;28;20802;-78
2023/01/13 06:12:02;;;;;;;22.33;3.97;;;8.40;99.90;;;;;;5075450;28;20401;-78
2023/01/13 06:14:38;;;;;;;24.88;4.82;;;8.40;99.90;;;;;;5072936;28;20530;-77
2023/01/13 06:17:13;;;;;;;19.27;3.72;;;8.40;99.90;;;;;;5089453;28;20405;-78
2023/01/13 06:19:40;;;;;;;18.80;3.35;;;8.40;99.90;;;;;;5089493;28;20460;-77
2023/01/13 06:22:16;;;;;;;23.17;4.35;;;8.40;99.90;;;;;;5088671;28;20463;-78
2023/01/13 06:24:44;;;;;;;20.92;3.60;;;8.40;99.90;;;;;;5089495;28;20904;-78
2023/01/13 06:27:11;;;;;;;22.17;3.53;;;8.40;99.90;;;;;;5089062;28;20924;-78
2023/01/13 06:29:37;;;;;;;21.25;3.95;;;8.40;99.90;;;;;;5089326;28;20402;-77
2023/01/13 06:32:09;;;;;;;20.00;3.70;;;8.40;99.90;;;;;;5089353;28;20463;-78
2023/01/13 06:34:36;;;;;;;24.80;3.95;;;8.40;99.90;;;;;;5071473;28;20418;-78
2023/01/13 06:37:02;;;;;;;24.20;3.72;;;8.40;99.90;;;;;;5078247;28;20816;-78
2023/01/13 06:39:30;;;;;;;24.13;4.23;;;8.40;99.90;;;;;;5088121;28;20406;-78
2023/01/13 06:44:42;;;;;;;25.50;4.18;;;8.40;99.90;;;;;;5077565;28;20417;-77
2023/01/13 06:47:08;;;;;;;26.45;4.15;;;8.30;99.90;;;;;;5089260;28;20456;-75
2023/01/13 06:49:34;;;;;;;21.90;3.25;;;8.30;99.90;;;;;;5089623;28;20425;-76
2023/01/13 06:51:59;;;;;;;23.33;3.72;;;8.30;99.90;;;;;;5090354;28;20749;-77
2023/01/13 06:54:25;;;;;;;24.23;3.90;;;8.30;99.90;;;;;;5082793;28;20441;-85
2023/01/13 06:56:51;;;;;;;24.27;3.50;;;8.30;99.90;;;;;;5084002;28;20825;-77
2023/01/13 06:59:17;;;;;;;22.00;3.95;;;8.30;99.90;;;;;;5071229;28;20406;-77
2023/01/13 07:01:42;;;;;;;22.37;4.20;;;8.20;99.90;;;;;;5088666;28;20409;-77
2023/01/13 07:04:08;;;;;;;25.03;3.70;;;8.10;99.90;;;;;;5085375;28;20471;-77
2023/01/13 07:06:33;;;;;;;17.77;3.10;;;8.10;99.90;;;;;;5086166;28;20428;-77
2023/01/13 07:08:59;;;;;;;24.20;3.87;;;7.90;99.90;;;;;;5087920;28;20752;-78
2023/01/13 07:11:25;;;;;;;23.75;3.45;;;7.80;99.90;;;;;;5086199;28;20414;-78
2023/01/13 07:16:35;;;;;;;19.65;3.45;;;7.70;99.90;;;;;;5086114;28;20421;-77
2023/01/13 07:19:00;;;;;;;22.60;4.17;;;7.70;99.90;;;;;;5086501;28;20918;-77
2023/01/13 07:21:26;;;;;;;18.83;2.88;;;7.70;99.90;;;;;;5086250;28;20410;-77
2023/01/13 07:23:51;;;;;;;18.97;3.17;;;7.60;99.90;;;;;;5087756;28;20410;-77
2023/01/13 07:26:17;;;;;;;22.33;3.00;;;7.60;99.90;;;;;;5089737;28;20475;-77
2023/01/13 07:28:43;;;;;;;18.77;2.63;;;7.60;99.90;;;;;;5106934;28;20574;-77
2023/01/13 07:31:15;;;;;;;20.80;3.37;;;7.50;99.90;;;;;;5104169;28;20423;-77
2023/01/13 07:33:41;;;;;;;20.67;3.55;;;7.50;99.90;;;;;;5087681;28;20493;-77
2023/01/13 07:36:06;;;;;;;22.97;3.30;;;7.50;99.90;;;;;;5088286;28;20540;-77
2023/01/13 07:38:33;;;;;;;22.77;3.25;;;7.50;99.90;;;;;;5086786;28;20421;-77
2023/01/13 07:43:30;;;;;;;19.17;3.22;;;7.50;99.90;;;;;;5070439;28;20414;-77
2023/01/13 07:43:45;;;;;;;19.73;2.90;;;7.50;99.90;;;;;;5087666;28;20410;-77
2023/01/13 07:46:11;;;;;;;19.30;2.75;;;7.40;99.90;;;;;;5086876;28;20456;-77
2023/01/13 07:48:36;;;;;;;17.43;2.67;;;7.40;99.90;;;;;;5088147;28;20441;-76
2023/01/13 07:51:08;;;;;;;15.90;2.75;;;7.40;99.90;;;;;;5087809;28;20899;-77
2023/01/13 07:53:34;;;;;;;20.83;3.00;;;7.40;99.90;;;;;;5087919;28;20413;-76
2023/01/13 07:56:00;;;;;;;19.57;3.00;;;7.40;99.90;;;;;;5089660;28;20406;-77
2023/01/13 07:58:26;;;;;;;19.00;2.80;;;7.50;99.90;;;;;;5089554;28;20401;-77
2023/01/13 08:00:53;;;;;;;18.60;3.00;;;7.50;99.90;;;;;;5089761;28;20581;-76
2023/01/13 08:03:18;;;;;;;19.85;3.28;;;7.50;99.90;;;;;;5089344;28;20414;-77
2023/01/13 08:05:44;;;;;;;16.13;2.97;;;7.50;99.90;;;;;;5066727;28;20434;-76
2023/01/13 08:08:10;;;;;;;21.73;3.55;;;7.50;99.90;;;;;;5070155;28;20453;-77
2023/01/13 08:10:38;;;;;;;17.73;3.00;;;7.50;99.90;;;;;;5076039;28;20416;-77
2023/01/13 08:13:20;;;;;;;18.58;3.00;;;7.50;99.90;;;;;;5077384;28;20515;-77
2023/01/13 08:15:49;;;;;;;23.83;3.30;;;7.50;99.90;;;;;;5083948;28;21026;-77
2023/01/13 08:18:16;;;;;;;21.88;3.70;;;7.50;99.90;;;;;;5085720;28;20405;-76
2023/01/13 08:20:42;;;;;;;19.73;3.10;;;7.50;99.90;;;;;;5067370;28;20410;-77
2023/01/13 08:23:07;;;;;;;24.10;3.63;;;7.60;99.90;;;;;;5073778;28;20414;-77
2023/01/13 08:25:33;;;;;;;20.40;4.20;;;7.60;99.90;;;;;;5086968;28;20394;-77
2023/01/13 08:27:59;;;;;;;19.77;3.00;;;7.60;99.90;;;;;;5098850;28;20843;-77
2023/01/13 08:30:26;;;;;;;22.23;3.60;;;7.60;99.90;;;;;;5088454;28;20402;-77
2023/01/13 08:32:52;;;;;;;25.27;3.90;;;7.60;99.90;;;;;;5086794;28;20406;-77
2023/01/13 08:35:18;;;;;;;20.13;3.28;;;7.60;99.90;;;;;;5087752;28;20460;-77
2023/01/13 08:37:45;;;;;;;15.03;2.90;;;7.60;99.90;;;;;;5068702;28;20421;-77
2023/01/13 08:40:12;;;;;;;21.25;3.67;;;7.70;99.90;;;;;;5057275;28;20429;-77
2023/01/13 08:42:38;;;;;;;21.77;3.83;;;7.70;99.90;;;;;;5086272;28;20451;-77
2023/01/13 08:45:04;;;;;;;21.40;3.60;;;7.70;99.90;;;;;;5107354;28;20400;-76
2023/01/13 08:47:30;;;;;;;18.33;2.80;;;7.70;99.90;;;;;;5105258;28;20426;-77
2023/01/13 08:49:56;;;;;;;22.27;3.77;;;7.70;99.90;;;;;;5105842;28;20939;-77
2023/01/13 08:52:22;;;;;;;21.63;3.92;;;7.70;99.90;;;;;;5091745;28;20414;-77
2023/01/13 08:54:47;;;;;;;22.52;4.47;;;7.70;99.90;;;;;;5105174;28;20415;-77
2023/01/13 08:57:14;;;;;;;21.43;3.73;;;7.70;99.90;;;;;;5103987;28;20404;-76
2023/01/13 08:59:42;;;;;;;17.48;2.92;;;7.80;99.90;;;;;;5097973;28;20425;-77
2023/01/13 09:02:16;;;;;;;27.58;4.80;;;7.80;99.90;;;;;;5099160;28;20762;-77
2023/01/13 09:04:42;;;;;;;21.55;3.65;;;7.90;99.90;;;;;;5085453;28;20493;-77
2023/01/13 09:07:08;;;;;;;20.40;2.97;;;7.90;99.90;;;;;;5085350;28;20424;-77
2023/01/13 09:09:34;;;;;;;19.83;3.40;;;7.90;99.90;;;;;;5085693;28;20402;-77
2023/01/13 09:14:44;;;;;;;21.20;3.22;;;7.90;99.90;;;;;;5089668;28;20415;-77
2023/01/13 09:17:09;;;;;;;21.35;3.65;;;7.90;99.90;;;;;;5109203;28;20423;-77
2023/01/13 09:19:36;;;;;;;22.43;4.33;;;7.90;99.90;;;;;;5096957;28;21241;-77
2023/01/13 09:22:01;;;;;;;20.30;3.83;;;7.90;99.90;;;;;;5089352;28;20938;-77
2023/01/13 09:24:27;;;;;;;28.37;3.73;;;7.80;99.90;;;;;;5075547;28;20406;-77
2023/01/13 09:26:53;;;;;;;24.88;3.83;;;7.70;99.90;;;;;;5090708;28;20409;-77
2023/01/13 09:29:19;;;;;;;24.02;3.63;;;7.70;99.90;;;;;;5089353;28;20522;-77
2023/01/13 09:31:45;;;;;;;24.90;3.70;;;7.60;99.90;;;;;;5104167;28;20470;-77
2023/01/13 09:37:00;;;;;;;24.55;4.45;;;7.40;99.90;;;;;;5075483;28;20422;-76
2023/01/13 09:39:26;;;;;;;27.83;4.20;;;7.40;99.90;;;;;;5089457;28;20406;-77
2023/01/13 09:44:59;;;;;;;23.77;3.58;;;7.30;99.90;;;;;;5097870;28;20410;-76
2023/01/13 09:47:40;;;;;;;23.47;3.37;;;7.30;99.90;;;;;;5090660;28;20437;-76
2023/01/13 09:50:20;;;;;;;19.42;3.08;;;7.20;99.90;;;;;;5089541;28;20417;-76
2023/01/13 09:52:46;;;;;;;21.98;3.63;;;7.20;99.90;;;;;;5072194;28;20414;-76
2023/01/13 09:55:17;;;;;;;21.52;3.70;;;7.30;99.90;;;;;;5088900;28;20554;-76
2023/01/13 09:57:43;;;;;;;19.67;3.08;;;7.20;99.90;;;;;;5089420;28;20480;-76
2023/01/13 10:00:19;;;;;;;17.33;2.97;;;7.20;99.90;;;;;;5089912;28;20492;-76
2023/01/13 10:03:07;;;;;;;22.02;3.28;;;7.30;99.90;;;;;;5088746;28;20410;-77
2023/01/13 10:05:39;;;;;;;21.80;3.30;;;7.30;99.90;;;;;;5088311;28;20418;-77
2023/01/13 10:08:16;;;;;;;20.88;3.22;;;7.20;99.90;;;;;;5071847;28;20528;-77
2023/01/13 10:10:54;;;;;;;21.33;4.10;;;7.20;99.90;;;;;;5088475;28;20444;-77
2023/01/13 10:13:21;;;;;;;23.13;4.13;;;7.20;99.90;;;;;;5088934;28;20419;-77
2023/01/13 10:16:12;;;;;;;19.50;3.35;;;7.20;99.90;;;;;;5088706;28;20769;-77
2023/01/13 10:18:44;;;;;;;21.50;4.00;;;7.30;99.90;;;;;;5088064;28;20454;-77
2023/01/13 10:21:44;;;;;;;21.73;3.00;;;7.20;99.90;;;;;;5088902;28;20417;-77
2023/01/13 10:24:52;;;;;;;19.00;3.42;;;7.30;99.90;;;;;;5078838;28;20406;-76
2023/01/13 10:27:34;;;;;;;19.67;3.10;;;7.20;99.90;;;;;;5027684;28;20837;-76
2023/01/13 10:30:18;;;;;;;20.50;2.80;;;7.20;99.90;;;;;;5097247;28;20430;-77
2023/01/13 10:32:53;;;;;;;18.27;2.55;;;7.20;99.90;;;;;;5108458;28;20452;-76
2023/01/13 10:35:50;;;;;;;19.15;2.38;;;7.20;99.90;;;;;;5107423;28;21267;-77
2023/01/13 10:38:35;;;;;;;19.90;3.55;;;7.30;99.90;;;;;;5108618;28;20416;-77
2023/01/13 10:41:11;;;;;;;19.50;3.30;;;7.30;99.90;;;;;;5107639;28;20450;-77
2023/01/13 10:43:37;;;;;;;19.40;3.33;;;7.30;99.90;;;;;;5083836;28;20415;-76
2023/01/13 10:46:10;;;;;;;21.15;2.85;;;7.40;99.90;;;;;;5095257;28;20546;-76
2023/01/13 10:48:38;;;;;;;18.08;3.15;;;7.40;99.90;;;;;;5098660;28;20517;-77
2023/01/13 10:51:23;;;;;;;25.00;3.40;;;7.50;99.90;;;;;;5087564;28;20482;-77
2023/01/13 10:53:50;;;;;;;18.58;3.50;;;7.50;99.90;;;;;;5087625;28;20429;-76
2023/01/13 10:56:18;;;;;;;19.38;3.03;;;7.60;99.90;;;;;;5087434;28;20979;-76
2023/01/13 10:58:44;;;;;;;16.57;3.00;;;7.70;99.90;;;;;;5088719;28;20414;-77
2023/01/13 11:01:26;;;;;;;21.33;3.33;;;7.70;99.90;;;;;;5070983;28;20417;-77
2023/01/13 11:03:54;;;;;;;18.25;3.00;;;7.80;99.90;;;;;;5101969;28;20400;-77
2023/01/13 11:06:27;;;;;;;18.02;2.92;;;7.80;99.90;;;;;;5107518;28;20468;-77
2023/01/13 11:08:56;;;;;;;19.80;3.08;;;7.90;99.90;;;;;;5104576;28;20954;-76
2023/01/13 11:11:42;;;;;;;19.15;3.00;;;7.90;99.90;;;;;;5105746;28;20431;-76
2023/01/13 11:14:32;;;;;;;17.48;3.35;;;7.90;99.90;;;;;;5081509;28;20490;-76
2023/01/13 11:17:18;;;;;;;19.90;3.10;;;7.90;99.90;;;;;;5101408;28;20402;-76
2023/01/13 11:19:53;;;;;;;17.83;2.80;;;7.90;99.90;;;;;;5088046;28;20405;-76
2023/01/13 11:22:27;;;;;;;22.23;3.30;;;8.00;99.90;;;;;;5104032;28;20412;-77
2023/01/13 11:25:02;;;;;;;20.70;2.97;;;8.00;99.90;;;;;;5103745;28;20800;-76
2023/01/13 11:27:51;;;;;;;18.87;3.67;;;8.00;99.90;;;;;;5086148;28;20430;-77
2023/01/13 11:30:46;;;;;;;17.70;2.70;;;8.10;99.90;;;;;;5077802;28;20434;-75
2023/01/13 11:33:15;;;;;;;17.50;3.17;;;8.10;99.90;;;;;;5072612;28;20779;-76
2023/01/13 11:36:12;;;;;;;20.92;3.10;;;8.20;99.90;;;;;;5103517;27;20408;-77
2023/01/13 11:38:42;;;;;;;18.73;3.13;;;8.20;99.90;;;;;;5078639;28;20923;-76
2023/01/13 11:41:32;;;;;;;15.88;2.38;;;8.20;99.90;;;;;;5086570;28;20414;-77
2023/01/13 11:44:15;;;;;;;16.65;2.88;;;8.20;99.90;;;;;;5090285;28;20420;-77
2023/01/13 11:46:41;;;;;;;17.50;3.37;;;8.30;99.90;;;;;;5087073;28;20774;-77
2023/01/13 11:49:14;;;;;;;18.50;3.00;;;8.30;99.90;;;;;;5086529;28;20456;-77
2023/01/13 11:52:05;;;;;;;17.13;3.45;;;8.30;99.90;;;;;;5086621;28;20442;-76
2023/01/13 11:54:33;;;;;;;17.15;3.17;;;8.30;99.90;;;;;;5086439;28;20410;-76
2023/01/13 11:57:13;;;;;;;24.15;3.40;;;8.30;99.90;;;;;;5086824;28;20442;-76
2023/01/13 12:00:07;;;;;;;15.73;2.55;;;8.40;99.90;;;;;;5075330;28;20406;-77
2023/01/13 12:02:51;;;;;;;16.33;3.05;;;8.40;99.90;;;;;;5087051;28;20419;-77
2023/01/13 12:05:37;;;;;;;20.02;2.90;;;8.30;99.90;;;;;;5074403;28;20768;-77
2023/01/13 12:08:24;;;;;;;18.10;2.70;;;8.20;99.90;;;;;;5086022;28;20512;-77
2023/01/13 12:11:20;;;;;;;14.68;2.42;;;8.20;99.90;;;;;;5087097;28;20810;-77
2023/01/13 12:14:07;;;;;;;13.88;2.50;;;8.30;99.90;;;;;;5061239;28;20977;-76
2023/01/13 12:16:36;;;;;;;15.80;2.47;;;8.30;99.90;;;;;;5081416;28;20416;-77
2023/01/13 12:19:26;;;;;;;14.53;2.17;;;8.30;99.90;;;;;;5091696;28;20406;-77
2023/01/13 12:22:01;;;;;;;15.70;2.37;;;8.20;99.90;;;;;;5087107;28;20474;-77
2023/01/13 12:25:09;;;;;;;15.15;2.53;;;8.10;99.90;;;;;;5087464;28;20414;-76
2023/01/13 12:27:59;;;;;;;12.57;2.47;;;8.10;99.90;;;;;;5075158;28;20508;-77
2023/01/13 12:30:39;;;;;;;13.82;2.10;;;8.10;99.90;;;;;;5072357;28;20939;-77
2023/01/13 12:33:35;;;;;;;13.18;2.20;;;8.10;99.90;;;;;;5078205;28;20410;-76
2023/01/13 12:36:03;;;;;;;15.70;2.17;;;8.10;99.90;;;;;;5086692;28;20923;-77
2023/01/13 12:38:32;;;;;;;15.10;2.40;;;8.10;99.90;;;;;;5072893;28;20419;-77
2023/01/13 12:41:03;;;;;;;15.82;2.50;;;8.10;99.90;;;;;;5080466;28;20420;-77
2023/01/13 12:46:20;;;;;;;11.43;1.75;;;7.70;99.90;;;;;;5105779;28;20409;-76
2023/01/13 12:48:54;;;;;;;16.40;2.53;;;7.50;99.90;;;;;;5088851;28;20436;-76
2023/01/13 12:51:25;;;;;;;16.80;2.90;;;7.40;99.90;;;;;;5097226;28;20959;-76
2023/01/13 12:53:51;;;;;;;16.63;2.67;;;7.40;99.90;;;;;;5090899;28;20909;-76
2023/01/13 12:56:28;;;;;;;10.75;1.83;;;7.40;99.90;;;;;;5073516;28;20761;-76
2023/01/13 12:59:17;;;;;;;13.85;1.90;;;7.50;99.90;;;;;;5079044;28;20458;-76
2023/01/13 13:01:45;;;;;;;13.65;2.60;;;7.50;99.90;;;;;;5091314;28;20457;-76
2023/01/13 13:04:13;;;;;;;15.63;3.03;;;7.60;99.90;;;;;;5091029;28;20919;-77
2023/01/13 13:06:44;;;;;;;12.82;2.47;;;7.60;99.90;;;;;;5091210;28;20879;-76
2023/01/13 13:09:20;;;;;;;16.92;2.80;;;7.60;99.90;;;;;;5090315;28;20753;-77
2023/01/13 13:14:40;;;;;;;15.93;2.33;;;7.80;99.90;;;;;;5089433;28;20542;-77
2023/01/13 13:17:28;;;;;;;11.43;2.20;;;7.90;99.90;;;;;;5089288;28;20950;-76
2023/01/13 13:19:58;;;;;;;11.82;2.05;;;7.90;99.90;;;;;;5088744;28;20421;-77
2023/01/13 13:22:27;;;;;;;11.55;1.65;;;8.00;99.90;;;;;;5090034;28;20789;-77
2023/01/13 13:24:58;;;;;;;12.70;1.73;;;8.00;99.90;;;;;;5089291;28;20411;-77
2023/01/13 13:27:36;;;;;;;13.77;2.37;;;8.00;99.90;;;;;;5089640;28;20445;-77
2023/01/13 13:30:28;;;;;;;11.55;1.67;;;8.00;99.90;;;;;;5088989;28;20446;-77
2023/01/13 13:33:12;;;;;;;15.38;2.55;;;8.00;99.90;;;;;;5077457;28;20938;-77
2023/01/13 13:36:06;;;;;;;15.73;2.10;;;8.00;99.90;;;;;;5090017;28;20504;-77
2023/01/13 13:47:16;;;;;;;12.02;2.05;;;8.20;99.90;;;;;;5089486;28;20495;-77
2023/01/13 13:49:50;;;;;;;15.30;2.40;;;8.30;99.90;;;;;;5089425;28;21125;-77
2023/01/13 13:52:21;;;;;;;10.77;1.85;;;8.40;99.90;;;;;;5108936;28;20411;-77
2023/01/13 13:54:50;;;;;;;12.15;1.73;;;8.40;99.90;;;;;;5107492;28;20515;-77
2023/01/13 13:57:32;;;;;;;10.13;1.77;;;8.40;99.90;;;;;;5090159;28;20398;-77
2023/01/13 13:59:59;;;;;;;13.00;1.98;;;8.50;99.90;;;;;;5088824;28;20414;-77
2023/01/13 14:02:35;;;;;;;10.93;1.55;;;8.50;99.90;;;;;;5089962;28;20414;-77
2023/01/13 14:05:13;;;;;;;11.50;1.80;;;8.50;99.90;;;;;;5089447;28;20465;-77
2023/01/13 14:07:44;;;;;;;12.27;3.47;;;8.50;99.90;;;;;;5090120;28;20433;-77